createdAt,value
2019-03-29T00:00:16.011Z,100.00
2019-03-29T00:02:47.776Z,100.00
2019-03-29T00:05:18.219Z,100.00
2019-03-29T00:07:48.975Z,100.00
2019-03-29T00:10:20.266Z,100.00
2019-03-29T00:12:49.781Z,100.00
2019-03-29T00:15:19.251Z,100.00
2019-03-29T00:17:50.528Z,100.00
2019-03-29T00:20:20.211Z,100.00
2019-03-29T00:22:49.847Z,100.00
2019-03-29T00:25:19.982Z,100.00
2019-03-29T00:27:49.423Z,100.00
2019-03-29T00:30:19.070Z,100.00
2019-03-29T00:32:49.508Z,100.00
2019-03-29T00:35:19.986Z,100.00
2019-03-29T00:37:53.840Z,100.00
2019-03-29T00:40:20.569Z,100.00
2019-03-29T00:42:50.991Z,100.00
2019-03-29T00:45:20.546Z,100.00
2019-03-29T00:47:50.086Z,100.00
2019-03-29T00:50:19.594Z,100.00
2019-03-29T00:52:49.026Z,100.00
2019-03-29T00:55:18.509Z,100.00
2019-03-29T00:57:47.941Z,100.00
2019-03-29T01:00:17.596Z,100.00
2019-03-29T01:02:47.226Z,100.00
2019-03-29T01:05:18.243Z,100.00
2019-03-29T01:07:49.674Z,100.00
2019-03-29T01:10:19.591Z,100.00
2019-03-29T01:12:49.040Z,100.00
2019-03-29T01:15:24.456Z,100.00
2019-03-29T01:17:54.982Z,100.00
2019-03-29T01:20:25.633Z,100.00
2019-03-29T01:22:55.062Z,100.00
2019-03-29T01:25:24.577Z,100.00
2019-03-29T01:27:54.005Z,100.00
2019-03-29T01:30:23.686Z,100.00
2019-03-29T01:32:53.179Z,100.00
2019-03-29T01:35:22.710Z,100.00
2019-03-29T01:37:53.221Z,100.00
2019-03-29T01:40:22.830Z,100.00
2019-03-29T01:42:52.313Z,100.00
2019-03-29T01:45:21.852Z,100.00
2019-03-29T01:47:51.284Z,100.00
2019-03-29T01:50:20.922Z,100.00
2019-03-29T01:52:50.382Z,100.00
2019-03-29T01:55:19.851Z,100.00
2019-03-29T01:57:49.291Z,100.00
2019-03-29T02:00:36.086Z,100.00
2019-03-29T02:03:07.139Z,100.00
2019-03-29T02:05:36.611Z,100.00
2019-03-29T02:08:08.200Z,100.00
2019-03-29T02:10:37.734Z,100.00
2019-03-29T02:13:08.152Z,100.00
2019-03-29T02:15:37.922Z,100.00
2019-03-29T02:18:07.729Z,100.00
2019-03-29T02:20:38.262Z,100.00
2019-03-29T02:23:07.789Z,100.00
2019-03-29T02:25:38.221Z,100.00
2019-03-29T02:28:07.723Z,100.00
2019-03-29T02:30:37.299Z,100.00
2019-03-29T02:33:06.870Z,100.00
2019-03-29T02:35:38.434Z,100.00
2019-03-29T02:38:07.459Z,100.00
2019-03-29T02:40:37.029Z,100.00
2019-03-29T02:43:06.530Z,100.00
2019-03-29T02:45:36.018Z,100.00
2019-03-29T02:48:05.469Z,100.00
2019-03-29T02:50:36.649Z,100.00
2019-03-29T02:53:07.373Z,100.00
2019-03-29T02:55:36.876Z,100.00
2019-03-29T02:58:06.411Z,100.00
2019-03-29T03:00:35.984Z,100.00
2019-03-29T03:03:05.509Z,100.00
2019-03-29T03:05:35.117Z,100.00
2019-03-29T03:08:04.707Z,100.00
2019-03-29T03:10:34.182Z,100.00
2019-03-29T03:13:03.647Z,100.00
2019-03-29T03:15:33.159Z,100.00
2019-03-29T03:18:02.670Z,100.00
2019-03-29T03:20:32.202Z,100.00
2019-03-29T03:23:01.787Z,100.00
2019-03-29T03:25:31.315Z,100.00
2019-03-29T03:28:00.819Z,100.00
2019-03-29T03:30:30.330Z,100.00
2019-03-29T03:32:59.853Z,100.00
2019-03-29T03:35:29.410Z,100.00
2019-03-29T03:38:01.032Z,100.00
2019-03-29T03:40:30.460Z,100.00
2019-03-29T03:42:59.916Z,100.00
2019-03-29T03:45:48.680Z,100.00
2019-03-29T03:48:18.162Z,100.00
2019-03-29T03:50:47.733Z,100.00
2019-03-29T03:53:17.722Z,100.00
2019-03-29T03:55:53.194Z,100.00
2019-03-29T03:58:23.677Z,100.00
2019-03-29T04:00:58.139Z,100.00
2019-03-29T04:03:28.011Z,100.00
2019-03-29T04:05:57.827Z,100.00
2019-03-29T04:08:27.661Z,100.00
2019-03-29T04:10:57.578Z,100.00
2019-03-29T04:13:27.177Z,100.00
2019-03-29T04:15:56.764Z,100.00
2019-03-29T04:18:26.398Z,100.00
2019-03-29T04:20:55.958Z,100.00
2019-03-29T04:23:25.610Z,100.00
2019-03-29T04:25:55.162Z,100.00
2019-03-29T04:28:25.670Z,100.00
2019-03-29T04:30:55.143Z,100.00
2019-03-29T04:33:24.633Z,100.00
2019-03-29T04:35:54.123Z,100.00
2019-03-29T04:38:23.667Z,100.00
2019-03-29T04:40:53.163Z,100.00
2019-03-29T04:43:22.717Z,100.00
2019-03-29T04:45:52.207Z,100.00
2019-03-29T04:48:21.674Z,100.00
2019-03-29T04:50:51.219Z,100.00
2019-03-29T04:53:24.713Z,100.00
2019-03-29T04:55:54.145Z,100.00
2019-03-29T04:58:23.679Z,100.00
2019-03-29T05:00:53.188Z,100.00
2019-03-29T05:03:22.658Z,100.00
2019-03-29T05:05:53.051Z,100.00
2019-03-29T05:08:22.577Z,100.00
2019-03-29T05:10:52.027Z,100.00
2019-03-29T05:13:21.465Z,100.00
2019-03-29T05:15:50.921Z,100.00
2019-03-29T05:18:20.546Z,100.00
2019-03-29T05:20:49.987Z,100.00
2019-03-29T05:23:19.555Z,100.00
2019-03-29T05:25:50.961Z,100.00
2019-03-29T05:28:21.562Z,100.00
2019-03-29T05:30:51.065Z,100.00
2019-03-29T05:33:20.572Z,100.00
2019-03-29T05:35:50.043Z,100.00
2019-03-29T05:38:19.523Z,100.00
2019-03-29T05:40:49.980Z,100.00
2019-03-29T05:43:19.474Z,100.00
2019-03-29T05:45:48.891Z,100.00
2019-03-29T05:48:18.439Z,100.00
2019-03-29T05:50:48.492Z,100.00
2019-03-29T05:53:17.987Z,100.00
2019-03-29T05:55:48.478Z,100.00
2019-03-29T05:58:19.178Z,100.00
2019-03-29T06:00:48.618Z,100.00
2019-03-29T06:03:18.132Z,100.00
2019-03-29T06:05:48.536Z,100.00
2019-03-29T06:08:18.096Z,100.00
2019-03-29T06:10:49.250Z,100.00
2019-03-29T06:13:18.763Z,100.00
2019-03-29T06:15:48.191Z,100.00
2019-03-29T06:18:17.730Z,100.00
2019-03-29T06:20:47.265Z,100.00
2019-03-29T06:23:17.921Z,100.00
2019-03-29T06:25:47.493Z,100.00
2019-03-29T06:28:20.408Z,100.00
2019-03-29T06:30:51.877Z,100.00
2019-03-29T06:33:21.539Z,100.00
2019-03-29T06:35:52.053Z,100.00
2019-03-29T06:38:25.690Z,100.00
2019-03-29T06:41:02.723Z,100.00
2019-03-29T06:43:26.622Z,100.00
2019-03-29T06:45:56.099Z,100.00
2019-03-29T06:48:25.540Z,100.00
2019-03-29T06:50:55.084Z,100.00
2019-03-29T06:53:24.546Z,100.00
2019-03-29T06:55:54.099Z,100.00
2019-03-29T06:58:23.497Z,100.00
2019-03-29T07:00:52.970Z,100.00
2019-03-29T07:03:22.456Z,100.00
2019-03-29T07:05:53.048Z,100.00
2019-03-29T07:08:22.536Z,100.00
2019-03-29T07:10:52.085Z,100.00
2019-03-29T07:13:21.602Z,100.00
2019-03-29T07:15:51.052Z,100.00
2019-03-29T07:18:20.472Z,100.00
2019-03-29T07:20:49.969Z,100.00
2019-03-29T07:23:19.444Z,100.00
2019-03-29T07:25:49.650Z,100.00
2019-03-29T07:28:19.078Z,100.00
2019-03-29T07:30:48.524Z,99.32
2019-03-29T07:33:18.053Z,98.57
2019-03-29T07:35:48.594Z,97.51
2019-03-29T07:38:18.102Z,97.59
2019-03-29T07:40:47.608Z,97.71
2019-03-29T07:43:17.082Z,96.90
2019-03-29T07:45:46.616Z,96.56
2019-03-29T07:48:16.040Z,96.49
2019-03-29T07:50:45.586Z,96.17
2019-03-29T07:53:15.140Z,95.62
2019-03-29T07:55:44.661Z,94.68
2019-03-29T07:58:14.192Z,93.88
2019-03-29T08:00:44.731Z,93.46
2019-03-29T08:03:14.150Z,93.29
2019-03-29T08:05:45.164Z,91.65
2019-03-29T08:08:23.786Z,90.97
2019-03-29T08:10:45.868Z,90.17
2019-03-29T08:13:16.245Z,88.51
2019-03-29T08:15:46.197Z,87.53
2019-03-29T08:18:15.809Z,84.02
2019-03-29T08:20:45.258Z,83.01
2019-03-29T08:23:14.794Z,82.84
2019-03-29T08:25:45.469Z,81.93
2019-03-29T08:28:15.003Z,82.32
2019-03-29T08:30:45.954Z,81.64
2019-03-29T08:33:15.450Z,80.48
2019-03-29T08:35:46.055Z,80.49
2019-03-29T08:38:15.483Z,79.59
2019-03-29T08:40:45.430Z,77.25
2019-03-29T08:43:15.033Z,76.91
2019-03-29T08:45:44.568Z,76.54
2019-03-29T08:48:14.307Z,76.27
2019-03-29T08:50:49.704Z,75.86
2019-03-29T08:53:20.375Z,75.54
2019-03-29T08:55:49.962Z,76.11
2019-03-29T08:58:19.575Z,77.16
2019-03-29T09:00:49.279Z,76.01
2019-03-29T09:03:20.024Z,76.50
2019-03-29T09:05:51.120Z,75.79
2019-03-29T09:08:20.702Z,75.31
2019-03-29T09:10:50.232Z,74.36
2019-03-29T09:13:19.939Z,75.15
2019-03-29T09:15:49.387Z,75.46
2019-03-29T09:18:18.823Z,75.12
2019-03-29T09:20:48.369Z,75.65
2019-03-29T09:23:17.841Z,74.91
2019-03-29T09:25:47.282Z,74.88
2019-03-29T09:28:16.823Z,74.54
2019-03-29T09:30:46.403Z,74.79
2019-03-29T09:33:15.889Z,75.08
2019-03-29T09:35:45.437Z,76.12
2019-03-29T09:38:15.157Z,76.10
2019-03-29T09:40:53.491Z,73.20
2019-03-29T09:43:15.902Z,73.82
2019-03-29T09:45:47.285Z,72.81
2019-03-29T09:48:16.913Z,73.41
2019-03-29T09:50:50.414Z,74.56
2019-03-29T09:53:17.840Z,73.61
2019-03-29T09:55:47.485Z,74.59
2019-03-29T09:58:17.153Z,71.11
2019-03-29T10:00:46.750Z,70.92
2019-03-29T10:03:16.187Z,71.29
2019-03-29T10:05:45.751Z,70.74
2019-03-29T10:08:15.328Z,70.12
2019-03-29T10:10:45.848Z,69.80
2019-03-29T10:13:15.406Z,70.48
2019-03-29T10:18:25.155Z,70.83
2019-03-29T10:20:54.802Z,70.11
2019-03-29T10:23:24.294Z,69.87
2019-03-29T10:25:53.693Z,69.99
2019-03-29T10:28:23.262Z,69.79
2019-03-29T10:30:52.965Z,70.02
2019-03-29T10:33:22.525Z,70.80
2019-03-29T10:35:53.099Z,70.20
2019-03-29T10:38:22.791Z,70.44
2019-03-29T10:40:52.208Z,70.17
2019-03-29T10:43:21.725Z,70.71
2019-03-29T10:45:58.842Z,70.63
2019-03-29T10:48:28.359Z,70.43
2019-03-29T10:50:57.853Z,70.87
2019-03-29T10:53:28.978Z,69.67
2019-03-29T10:55:59.667Z,69.74
2019-03-29T10:58:29.102Z,68.73
2019-03-29T11:00:58.610Z,69.25
2019-03-29T11:03:28.878Z,69.00
2019-03-29T11:05:58.624Z,68.10
2019-03-29T11:08:28.151Z,67.83
2019-03-29T11:10:57.569Z,67.70
2019-03-29T11:13:27.335Z,66.53
2019-03-29T11:15:56.920Z,67.47
2019-03-29T11:18:26.500Z,67.78
2019-03-29T11:20:56.043Z,67.36
2019-03-29T11:23:25.521Z,65.69
2019-03-29T11:25:57.470Z,66.10
2019-03-29T11:28:27.079Z,66.39
2019-03-29T11:30:56.488Z,65.48
2019-03-29T11:33:27.148Z,64.96
2019-03-29T11:35:56.696Z,65.49
2019-03-29T11:38:26.162Z,65.63
2019-03-29T11:40:55.563Z,64.73
2019-03-29T11:43:26.963Z,64.29
2019-03-29T11:45:56.335Z,64.88
2019-03-29T11:48:25.859Z,64.75
2019-03-29T11:50:55.379Z,64.27
2019-03-29T11:53:24.848Z,63.58
2019-03-29T11:55:55.283Z,64.51
2019-03-29T11:58:24.917Z,62.65
2019-03-29T12:00:54.398Z,63.44
2019-03-29T12:03:23.857Z,60.39
2019-03-29T12:05:54.414Z,60.17
2019-03-29T12:08:24.176Z,59.02
2019-03-29T12:10:53.668Z,58.18
2019-03-29T12:13:23.195Z,58.21
2019-03-29T12:15:52.862Z,59.50
2019-03-29T12:18:22.447Z,60.26
2019-03-29T12:20:54.382Z,59.75
2019-03-29T12:23:23.052Z,57.77
2019-03-29T12:25:52.694Z,57.52
2019-03-29T12:28:22.221Z,56.97
2019-03-29T12:30:51.735Z,56.93
2019-03-29T12:33:22.261Z,57.61
2019-03-29T12:35:51.821Z,59.02
2019-03-29T12:38:21.220Z,57.02
2019-03-29T12:40:51.663Z,59.39
2019-03-29T12:43:21.217Z,60.84
2019-03-29T12:45:50.736Z,60.01
2019-03-29T12:48:20.224Z,59.03
2019-03-29T12:50:50.036Z,59.43
2019-03-29T12:53:19.676Z,59.11
2019-03-29T12:55:49.185Z,58.58
2019-03-29T12:58:18.728Z,60.28
2019-03-29T13:00:48.350Z,60.50
2019-03-29T13:03:17.985Z,61.35
2019-03-29T13:05:47.563Z,63.02
2019-03-29T13:08:18.108Z,63.06
2019-03-29T13:10:47.700Z,63.27
2019-03-29T13:13:17.248Z,63.33
2019-03-29T13:15:46.740Z,65.10
2019-03-29T13:18:16.238Z,65.21
2019-03-29T13:20:45.752Z,64.61
2019-03-29T13:23:15.240Z,64.72
2019-03-29T13:25:44.658Z,64.47
2019-03-29T13:28:15.153Z,63.24
2019-03-29T13:30:44.898Z,62.67
2019-03-29T13:33:14.446Z,60.98
2019-03-29T13:35:44.659Z,60.77
2019-03-29T13:38:14.395Z,61.64
2019-03-29T13:40:43.854Z,61.67
2019-03-29T13:43:13.342Z,58.30
2019-03-29T13:45:42.806Z,53.68
2019-03-29T13:48:12.291Z,49.72
2019-03-29T13:50:41.816Z,47.51
2019-03-29T13:53:11.375Z,45.50
2019-03-29T13:55:40.825Z,44.18
2019-03-29T13:58:10.300Z,44.61
2019-03-29T14:00:39.852Z,44.74
2019-03-29T14:03:09.291Z,47.58
2019-03-29T14:05:38.944Z,50.30
2019-03-29T14:08:09.627Z,52.57
2019-03-29T14:10:39.202Z,52.21
2019-03-29T14:13:08.714Z,53.00
2019-03-29T14:15:38.148Z,53.45
2019-03-29T14:18:07.799Z,54.66
2019-03-29T14:20:37.434Z,55.67
2019-03-29T14:23:07.031Z,57.24
2019-03-29T14:25:36.630Z,58.75
2019-03-29T14:28:06.112Z,59.03
2019-03-29T14:30:35.608Z,59.17
2019-03-29T14:33:05.168Z,60.02
2019-03-29T14:35:35.745Z,61.10
2019-03-29T14:38:05.311Z,61.46
2019-03-29T14:40:34.851Z,63.16
2019-03-29T14:43:10.224Z,63.77
2019-03-29T14:45:41.666Z,62.79
2019-03-29T14:48:11.216Z,63.58
2019-03-29T14:50:40.791Z,63.81
2019-03-29T14:53:10.326Z,63.53
2019-03-29T14:55:39.805Z,63.77
2019-03-29T14:58:09.271Z,63.30
2019-03-29T15:00:43.703Z,62.49
2019-03-29T15:03:13.486Z,62.69
2019-03-29T15:05:43.095Z,63.57
2019-03-29T15:08:12.665Z,62.81
2019-03-29T15:10:45.473Z,63.93
2019-03-29T15:13:13.367Z,62.93
2019-03-29T15:15:42.848Z,62.50
2019-03-29T15:18:12.389Z,62.28
2019-03-29T15:20:52.707Z,61.90
2019-03-29T15:23:13.046Z,62.29
2019-03-29T15:25:42.512Z,62.79
2019-03-29T15:28:12.101Z,62.86
2019-03-29T15:30:41.580Z,62.81
2019-03-29T15:33:11.013Z,63.28
2019-03-29T15:35:40.414Z,63.66
2019-03-29T15:38:09.861Z,63.67
2019-03-29T15:40:39.347Z,64.14
2019-03-29T15:43:09.960Z,63.28
2019-03-29T15:45:40.332Z,63.92
2019-03-29T15:48:09.966Z,63.92
2019-03-29T15:50:39.453Z,64.07
2019-03-29T15:53:09.031Z,63.99
2019-03-29T15:55:38.440Z,64.71
2019-03-29T15:58:07.883Z,63.94
2019-03-29T16:00:39.143Z,63.37
2019-03-29T16:03:08.686Z,63.25
2019-03-29T16:05:39.803Z,63.11
2019-03-29T16:08:10.331Z,63.60
2019-03-29T16:10:41.396Z,63.85
2019-03-29T16:13:11.195Z,63.67
2019-03-29T16:15:40.705Z,63.63
2019-03-29T16:18:11.701Z,62.83
2019-03-29T16:20:41.225Z,63.06
2019-03-29T16:23:10.870Z,62.14
2019-03-29T16:25:40.310Z,61.69
2019-03-29T16:28:09.943Z,62.34
2019-03-29T16:30:39.560Z,62.78
2019-03-29T16:33:09.004Z,63.02
2019-03-29T16:35:38.536Z,63.02
2019-03-29T16:38:09.148Z,63.44
2019-03-29T16:40:38.689Z,63.99
2019-03-29T16:43:08.246Z,64.83
2019-03-29T16:45:47.807Z,65.26
2019-03-29T16:48:12.545Z,65.58
2019-03-29T16:50:42.172Z,66.38
2019-03-29T16:53:11.612Z,66.48
2019-03-29T16:55:41.199Z,66.07
2019-03-29T16:58:10.950Z,65.87
2019-03-29T17:00:40.477Z,66.64
2019-03-29T17:03:10.049Z,67.16
2019-03-29T17:05:42.016Z,67.89
2019-03-29T17:08:10.731Z,68.47
2019-03-29T17:10:40.224Z,69.30
2019-03-29T17:13:09.806Z,70.10
2019-03-29T17:15:39.389Z,70.98
2019-03-29T17:18:08.953Z,71.48
2019-03-29T17:20:40.040Z,72.02
2019-03-29T17:23:09.498Z,72.34
2019-03-29T17:25:38.950Z,72.86
2019-03-29T17:28:08.565Z,73.50
2019-03-29T17:30:41.662Z,73.87
2019-03-29T17:33:12.274Z,73.94
2019-03-29T17:35:41.884Z,74.17
2019-03-29T17:38:11.318Z,74.50
2019-03-29T17:40:40.822Z,75.15
2019-03-29T17:43:10.329Z,75.71
2019-03-29T17:45:39.941Z,76.24
2019-03-29T17:48:09.566Z,76.62
2019-03-29T17:50:39.702Z,77.12
2019-03-29T17:53:10.935Z,77.37
2019-03-29T17:55:40.430Z,77.60
2019-03-29T17:58:10.002Z,77.75
2019-03-29T18:00:39.420Z,78.25
2019-03-29T18:03:09.972Z,78.54
2019-03-29T18:05:39.469Z,79.07
2019-03-29T18:08:09.033Z,79.52
2019-03-29T18:10:38.660Z,80.28
2019-03-29T18:13:08.092Z,81.06
2019-03-29T18:15:37.657Z,82.25
2019-03-29T18:18:07.068Z,83.94
2019-03-29T18:20:36.583Z,85.26
2019-03-29T18:23:07.006Z,86.70
2019-03-29T18:25:37.531Z,87.95
2019-03-29T18:28:07.041Z,88.53
2019-03-29T18:30:38.957Z,88.63
2019-03-29T18:33:08.597Z,89.35
2019-03-29T18:35:38.359Z,90.09
2019-03-29T18:38:08.015Z,90.23
2019-03-29T18:40:38.483Z,90.12
2019-03-29T18:43:07.989Z,89.77
2019-03-29T18:45:41.358Z,89.60
2019-03-29T18:48:08.855Z,89.83
2019-03-29T18:50:38.354Z,90.23
2019-03-29T18:53:07.841Z,90.10
2019-03-29T18:55:37.375Z,90.07
2019-03-29T18:58:06.979Z,90.08
2019-03-29T19:00:36.618Z,90.35
2019-03-29T19:03:06.177Z,90.16
2019-03-29T19:05:36.019Z,90.39
2019-03-29T19:08:08.806Z,91.30
2019-03-29T19:10:38.689Z,92.02
2019-03-29T19:13:09.338Z,92.62
2019-03-29T19:15:39.951Z,93.33
2019-03-29T19:18:09.641Z,93.51
2019-03-29T19:20:39.190Z,93.02
2019-03-29T19:23:08.783Z,92.85
2019-03-29T19:25:38.310Z,92.75
2019-03-29T19:28:07.874Z,92.43
2019-03-29T19:30:38.437Z,92.36
2019-03-29T19:33:08.046Z,92.45
2019-03-29T19:35:37.603Z,92.24
2019-03-29T19:38:07.242Z,92.49
2019-03-29T19:40:37.684Z,92.62
2019-03-29T19:43:07.200Z,93.10
2019-03-29T19:45:38.603Z,93.92
2019-03-29T19:48:08.138Z,94.28
2019-03-29T19:50:37.681Z,94.67
2019-03-29T19:53:08.160Z,94.46
2019-03-29T19:55:37.679Z,94.92
2019-03-29T19:58:07.175Z,95.88
2019-03-29T20:00:41.055Z,96.33
2019-03-29T20:03:10.780Z,97.73
2019-03-29T20:05:40.404Z,99.02
2019-03-29T20:08:09.975Z,98.74
2019-03-29T20:10:39.553Z,97.96
2019-03-29T20:13:09.092Z,98.89
2019-03-29T20:15:39.647Z,99.04
2019-03-29T20:18:09.190Z,98.74
2019-03-29T20:20:38.632Z,98.80
2019-03-29T20:23:08.231Z,98.36
2019-03-29T20:25:37.765Z,98.38
2019-03-29T20:28:08.421Z,98.50
2019-03-29T20:30:37.980Z,98.82
2019-03-29T20:33:07.897Z,99.26
2019-03-29T20:35:38.127Z,99.96
2019-03-29T20:38:09.563Z,100.00
2019-03-29T20:40:39.756Z,100.00
2019-03-29T20:43:09.244Z,100.00
2019-03-29T20:45:39.379Z,100.00
2019-03-29T20:48:08.794Z,100.00
2019-03-29T20:50:39.002Z,100.00
2019-03-29T20:53:11.587Z,100.00
2019-03-29T20:55:41.208Z,100.00
2019-03-29T20:58:11.330Z,100.00
2019-03-29T21:00:40.853Z,100.00
2019-03-29T21:03:12.634Z,100.00
2019-03-29T21:05:42.242Z,100.00
2019-03-29T21:08:12.625Z,100.00
2019-03-29T21:10:55.048Z,100.00
2019-03-29T21:13:14.110Z,100.00
2019-03-29T21:15:43.709Z,100.00
2019-03-29T21:18:17.242Z,100.00
2019-03-29T21:20:45.087Z,100.00
2019-03-29T21:23:15.308Z,100.00
2019-03-29T21:25:45.392Z,100.00
2019-03-29T21:28:16.692Z,100.00
2019-03-29T21:30:47.223Z,100.00
2019-03-29T21:33:20.577Z,100.00
2019-03-29T21:35:50.778Z,100.00
2019-03-29T21:38:21.003Z,100.00
2019-03-29T21:40:51.224Z,100.00
2019-03-29T21:43:21.427Z,100.00
2019-03-29T21:45:51.582Z,100.00
2019-03-29T21:48:29.350Z,100.00
2019-03-29T21:50:53.477Z,100.00
2019-03-29T21:53:23.768Z,100.00
2019-03-29T21:55:53.847Z,100.00
2019-03-29T21:58:23.376Z,100.00
2019-03-29T22:00:53.623Z,100.00
2019-03-29T22:03:23.062Z,100.00
2019-03-29T22:05:53.462Z,100.00
2019-03-29T22:08:25.370Z,100.00
2019-03-29T22:10:55.546Z,100.00
2019-03-29T22:13:25.022Z,100.00
2019-03-29T22:15:56.083Z,100.00
2019-03-29T22:18:37.223Z,100.00
2019-03-29T22:20:58.477Z,100.00
2019-03-29T22:23:28.755Z,100.00
2019-03-29T22:25:59.335Z,100.00
2019-03-29T22:28:29.644Z,100.00
2019-03-29T22:31:00.914Z,100.00
2019-03-29T22:33:31.242Z,100.00
2019-03-29T22:36:00.781Z,100.00
2019-03-29T22:38:31.045Z,100.00
2019-03-29T22:41:01.288Z,100.00
2019-03-29T22:43:31.549Z,100.00
2019-03-29T22:46:01.950Z,100.00
2019-03-29T22:48:32.585Z,100.00
2019-03-29T22:51:02.703Z,100.00
2019-03-29T22:53:32.342Z,100.00
2019-03-29T22:56:02.602Z,100.00
2019-03-29T22:58:33.239Z,100.00
2019-03-29T23:01:05.435Z,100.00
2019-03-29T23:03:36.684Z,100.00
2019-03-29T23:06:07.074Z,100.00
2019-03-29T23:08:37.235Z,100.00
2019-03-29T23:11:07.864Z,100.00
2019-03-29T23:13:38.202Z,100.00
2019-03-29T23:16:08.451Z,100.00
2019-03-29T23:18:38.707Z,100.00
2019-03-29T23:21:08.867Z,100.00
2019-03-29T23:23:39.070Z,100.00
2019-03-29T23:26:10.373Z,100.00
2019-03-29T23:28:40.538Z,100.00
2019-03-29T23:31:11.131Z,100.00
2019-03-29T23:33:41.419Z,100.00
2019-03-29T23:36:11.855Z,100.00
2019-03-29T23:38:42.230Z,100.00
2019-03-29T23:41:12.475Z,100.00
2019-03-29T23:43:43.633Z,100.00
2019-03-29T23:46:13.808Z,100.00
2019-03-29T23:48:44.287Z,100.00
2019-03-29T23:51:14.483Z,100.00
2019-03-29T23:53:44.620Z,100.00
2019-03-29T23:56:14.346Z,100.00
2019-03-29T23:58:44.610Z,100.00
